createdAt,value
2023-12-31T00:00:00.517Z,33.0
2023-12-31T00:01:00.425Z,34.6
2023-12-31T00:02:00.427Z,37.1
2023-12-31T00:03:00.840Z,37.0
2023-12-31T00:04:00.468Z,33.1
2023-12-31T00:05:00.365Z,31.8
2023-12-31T00:06:00.426Z,35.4
2023-12-31T00:07:00.375Z,34.3
2023-12-31T00:08:00.380Z,29.9
2023-12-31T00:09:00.375Z,31.7
2023-12-31T00:10:00.364Z,27.5
2023-12-31T00:11:00.325Z,27.5
2023-12-31T00:12:00.449Z,29.3
2023-12-31T00:13:00.588Z,33.4
2023-12-31T00:14:01.109Z,43.4
2023-12-31T00:15:01.685Z,74.2
2023-12-31T00:16:04.079Z,80.8
2023-12-31T00:17:01.357Z,73.2
2023-12-31T00:18:01.353Z,67.6
2023-12-31T00:19:01.328Z,64.8
2023-12-31T00:20:00.514Z,70.1
2023-12-31T00:21:00.375Z,48.9
2023-12-31T00:22:00.350Z,48.2
2023-12-31T00:23:00.512Z,49.5
2023-12-31T00:24:00.351Z,49.1
2023-12-31T00:25:00.360Z,49.1
2023-12-31T00:26:00.373Z,46.8
2023-12-31T00:27:01.272Z,48.7
2023-12-31T00:28:01.140Z,58.0
2023-12-31T00:29:01.269Z,95.6
2023-12-31T00:30:01.101Z,127.1
2023-12-31T00:31:01.278Z,134.0
2023-12-31T00:32:01.311Z,106.5
2023-12-31T00:33:01.754Z,87.7
2023-12-31T00:34:01.106Z,67.7
2023-12-31T00:35:01.364Z,78.4
2023-12-31T00:36:01.372Z,73.8
2023-12-31T00:37:04.450Z,73.3
2023-12-31T00:38:03.371Z,58.9
2023-12-31T00:39:00.317Z,61.8
2023-12-31T00:40:00.326Z,50.3
2023-12-31T00:41:00.317Z,44.6
2023-12-31T00:42:00.337Z,42.4
2023-12-31T00:43:00.355Z,41.3
2023-12-31T00:44:00.317Z,38.4
2023-12-31T00:45:00.300Z,42.4
2023-12-31T00:46:00.341Z,39.6
2023-12-31T00:47:00.312Z,37.7
2023-12-31T00:48:00.469Z,42.9
2023-12-31T00:49:00.354Z,36.7
2023-12-31T00:50:00.514Z,40.7
2023-12-31T00:51:00.348Z,35.4
2023-12-31T00:52:00.361Z,33.6
2023-12-31T00:53:00.325Z,34.7
2023-12-31T00:54:00.426Z,33.6
2023-12-31T00:55:00.375Z,34.0
2023-12-31T00:56:00.290Z,34.2
2023-12-31T00:57:00.728Z,43.3
2023-12-31T00:58:03.463Z,47.0
2023-12-31T00:59:00.319Z,41.0
2023-12-31T01:00:00.325Z,38.1
2023-12-31T01:01:00.556Z,40.1
2023-12-31T01:02:00.358Z,40.1
2023-12-31T01:03:00.438Z,41.2
2023-12-31T01:04:00.258Z,41.7
2023-12-31T01:05:00.378Z,41.3
2023-12-31T01:06:00.286Z,41.4
2023-12-31T01:07:00.314Z,42.2
2023-12-31T01:08:00.255Z,46.3
2023-12-31T01:09:00.281Z,45.0
2023-12-31T01:10:00.293Z,42.2
2023-12-31T01:11:00.304Z,40.4
2023-12-31T01:12:00.429Z,36.9
2023-12-31T01:13:00.330Z,39.6
2023-12-31T01:14:00.511Z,39.4
2023-12-31T01:15:00.257Z,38.5
2023-12-31T01:16:00.305Z,36.5
2023-12-31T01:17:00.280Z,38.1
2023-12-31T01:18:00.602Z,38.9
2023-12-31T01:19:03.735Z,38.4
2023-12-31T01:20:00.320Z,36.6
2023-12-31T01:21:00.326Z,35.6
2023-12-31T01:22:00.322Z,37.9
2023-12-31T01:23:00.568Z,36.4
2023-12-31T01:24:00.313Z,35.2
2023-12-31T01:25:00.292Z,36.8
2023-12-31T01:26:00.356Z,35.3
2023-12-31T01:27:00.264Z,35.4
2023-12-31T01:28:00.242Z,34.6
2023-12-31T01:29:00.233Z,33.2
2023-12-31T01:30:00.260Z,35.0
2023-12-31T01:31:00.331Z,33.1
2023-12-31T01:32:00.286Z,35.0
2023-12-31T01:33:00.468Z,39.5
2023-12-31T01:34:00.273Z,39.3
2023-12-31T01:35:00.235Z,36.5
2023-12-31T01:36:00.239Z,36.0
2023-12-31T01:37:00.250Z,34.3
2023-12-31T01:38:00.982Z,36.1
2023-12-31T01:39:00.524Z,34.9
2023-12-31T01:40:03.446Z,39.1
2023-12-31T01:41:00.282Z,39.6
2023-12-31T01:42:00.265Z,36.9
2023-12-31T01:43:00.362Z,39.5
2023-12-31T01:44:00.284Z,39.6
2023-12-31T01:45:00.378Z,37.1
2023-12-31T01:46:00.275Z,36.2
2023-12-31T01:47:00.256Z,34.8
2023-12-31T01:48:00.260Z,35.4
2023-12-31T01:49:00.382Z,36.9
2023-12-31T01:50:00.308Z,37.4
2023-12-31T01:51:00.248Z,37.5
2023-12-31T01:52:00.274Z,36.0
2023-12-31T01:53:00.388Z,37.9
2023-12-31T01:54:00.251Z,35.1
2023-12-31T01:55:00.245Z,37.4
2023-12-31T01:56:00.201Z,36.3
2023-12-31T01:57:00.202Z,35.4
2023-12-31T01:58:00.248Z,36.7
2023-12-31T01:59:00.272Z,36.6
2023-12-31T02:00:00.510Z,36.0
2023-12-31T02:01:03.599Z,36.5
2023-12-31T02:02:00.355Z,35.6
2023-12-31T02:03:00.385Z,34.9
2023-12-31T02:04:00.238Z,34.3
2023-12-31T02:05:00.348Z,35.5
2023-12-31T02:06:00.196Z,35.4
2023-12-31T02:07:00.334Z,34.5
2023-12-31T02:08:00.213Z,34.7
2023-12-31T02:09:00.178Z,35.7
2023-12-31T02:10:00.334Z,34.7
2023-12-31T02:11:00.232Z,34.1
2023-12-31T02:12:00.389Z,34.9
2023-12-31T02:13:00.267Z,34.7
2023-12-31T02:14:00.190Z,34.6
2023-12-31T02:15:00.267Z,34.7
2023-12-31T02:16:00.262Z,34.8
2023-12-31T02:17:00.197Z,33.8
2023-12-31T02:18:00.442Z,32.8
2023-12-31T02:19:00.240Z,31.9
2023-12-31T02:20:00.226Z,35.0
2023-12-31T02:21:00.544Z,34.9
2023-12-31T02:22:03.407Z,33.4
2023-12-31T02:23:00.148Z,33.8
2023-12-31T02:24:00.182Z,34.9
2023-12-31T02:25:00.254Z,33.8
2023-12-31T02:26:00.228Z,34.4
2023-12-31T02:27:00.172Z,34.5
2023-12-31T02:28:00.178Z,34.6
2023-12-31T02:29:00.346Z,33.8
2023-12-31T02:30:00.250Z,33.2
2023-12-31T02:31:00.143Z,32.3
2023-12-31T02:32:00.260Z,31.2
2023-12-31T02:33:00.346Z,33.0
2023-12-31T02:34:00.348Z,32.5
2023-12-31T02:35:00.200Z,35.2
2023-12-31T02:36:00.213Z,36.0
2023-12-31T02:37:00.148Z,36.5
2023-12-31T02:38:00.171Z,34.7
2023-12-31T02:39:00.232Z,35.4
2023-12-31T02:40:00.281Z,34.9
2023-12-31T02:41:00.110Z,33.7
2023-12-31T02:42:00.890Z,33.0
2023-12-31T02:43:00.236Z,34.2
2023-12-31T02:44:00.123Z,32.8
2023-12-31T02:45:00.096Z,30.9
2023-12-31T02:46:00.153Z,34.0
2023-12-31T02:47:00.090Z,32.7
2023-12-31T02:48:00.304Z,33.3
2023-12-31T02:49:00.169Z,33.7
2023-12-31T02:50:00.140Z,32.0
2023-12-31T02:51:00.302Z,32.3
2023-12-31T02:52:00.076Z,32.2
2023-12-31T02:53:00.133Z,32.2
2023-12-31T02:54:00.110Z,33.8
2023-12-31T02:55:00.132Z,34.8
2023-12-31T02:56:00.094Z,36.8
2023-12-31T02:57:00.109Z,37.6
2023-12-31T02:58:00.067Z,37.7
2023-12-31T02:59:00.114Z,34.4
2023-12-31T03:00:00.289Z,34.3
2023-12-31T03:01:00.148Z,32.4
2023-12-31T03:02:00.411Z,32.9
2023-12-31T03:03:01.557Z,32.1
2023-12-31T03:04:00.106Z,31.2
2023-12-31T03:05:00.163Z,30.6
2023-12-31T03:06:00.101Z,32.1
2023-12-31T03:07:00.070Z,32.0
2023-12-31T03:08:00.109Z,30.5
2023-12-31T03:09:00.137Z,29.4
2023-12-31T03:10:00.069Z,29.5
2023-12-31T03:11:00.063Z,29.4
2023-12-31T03:12:00.076Z,28.8
2023-12-31T03:13:00.108Z,29.4
2023-12-31T03:14:00.127Z,29.0
2023-12-31T03:15:00.070Z,28.9
2023-12-31T03:16:00.106Z,30.8
2023-12-31T03:17:00.121Z,30.7
2023-12-31T03:18:00.305Z,28.7
2023-12-31T03:19:00.073Z,29.3
2023-12-31T03:20:00.141Z,28.1
2023-12-31T03:21:00.091Z,29.5
2023-12-31T03:22:00.099Z,28.0
2023-12-31T03:23:00.220Z,27.4
2023-12-31T03:24:00.960Z,28.9
2023-12-31T03:25:00.120Z,28.5
2023-12-31T03:26:00.223Z,28.0
2023-12-31T03:27:00.075Z,27.0
2023-12-31T03:28:00.047Z,28.0
2023-12-31T03:29:00.033Z,28.5
2023-12-31T03:30:00.115Z,28.0
2023-12-31T03:31:00.083Z,28.4
2023-12-31T03:32:00.134Z,26.7
2023-12-31T03:33:00.161Z,27.9
2023-12-31T03:34:00.054Z,27.2
2023-12-31T03:35:00.287Z,26.4
2023-12-31T03:36:00.040Z,27.2
2023-12-31T03:37:00.106Z,28.8
2023-12-31T03:38:00.042Z,28.6
2023-12-31T03:39:00.092Z,30.6
2023-12-31T03:40:00.051Z,28.6
2023-12-31T03:41:00.071Z,29.1
2023-12-31T03:42:00.037Z,27.6
2023-12-31T03:43:00.126Z,29.6
2023-12-31T03:44:00.095Z,28.6
2023-12-31T03:45:00.898Z,28.6
2023-12-31T03:46:00.245Z,30.5
2023-12-31T03:47:00.063Z,29.5
2023-12-31T03:48:00.068Z,29.3
2023-12-31T03:49:00.107Z,28.2
2023-12-31T03:50:00.054Z,28.4
2023-12-31T03:51:00.034Z,28.3
2023-12-31T03:52:00.037Z,27.9
2023-12-31T03:53:00.030Z,29.2
2023-12-31T03:54:00.002Z,27.5
2023-12-31T03:55:00.018Z,28.3
2023-12-31T03:56:00.103Z,28.1
2023-12-31T03:57:00.172Z,27.9
2023-12-31T03:58:00.028Z,27.5
2023-12-31T03:59:00.000Z,28.0
2023-12-31T04:00:00.006Z,28.6
2023-12-31T04:01:00.028Z,28.6
2023-12-31T04:01:59.968Z,26.7
2023-12-31T04:02:59.976Z,27.9
2023-12-31T04:04:00.027Z,29.5
2023-12-31T04:05:00.022Z,28.1
2023-12-31T04:06:01.195Z,29.5
2023-12-31T04:07:00.006Z,29.1
2023-12-31T04:08:00.228Z,28.6
2023-12-31T04:08:59.996Z,27.9
2023-12-31T04:09:59.978Z,29.2
2023-12-31T04:10:59.991Z,27.7
2023-12-31T04:11:59.996Z,28.8
2023-12-31T04:13:00.000Z,27.4
2023-12-31T04:13:59.967Z,27.3
2023-12-31T04:14:59.965Z,27.0
2023-12-31T04:15:59.933Z,27.3
2023-12-31T04:16:59.938Z,26.8
2023-12-31T04:18:00.111Z,26.3
2023-12-31T04:19:00.178Z,27.4
2023-12-31T04:19:59.997Z,26.6
2023-12-31T04:21:00.011Z,29.1
2023-12-31T04:21:59.971Z,30.4
2023-12-31T04:22:59.958Z,35.9
2023-12-31T04:24:00.030Z,50.3
2023-12-31T04:24:59.947Z,54.9
2023-12-31T04:26:00.081Z,56.0
2023-12-31T04:27:01.925Z,57.0
2023-12-31T04:27:59.983Z,63.3
2023-12-31T04:29:00.055Z,53.4
2023-12-31T04:29:59.973Z,40.2
2023-12-31T04:31:00.041Z,33.5
2023-12-31T04:32:00.130Z,30.0
2023-12-31T04:33:00.007Z,28.4
2023-12-31T04:33:59.961Z,28.9
2023-12-31T04:34:59.945Z,27.6
2023-12-31T04:35:59.937Z,27.4
2023-12-31T04:36:59.951Z,27.8
2023-12-31T04:38:00.112Z,27.2
2023-12-31T04:39:00.082Z,28.3
2023-12-31T04:39:59.955Z,26.8
2023-12-31T04:40:59.941Z,26.9
2023-12-31T04:41:59.975Z,25.5
2023-12-31T04:43:00.041Z,25.5
2023-12-31T04:43:59.904Z,26.2
2023-12-31T04:45:00.503Z,26.9
2023-12-31T04:45:59.942Z,26.0
2023-12-31T04:46:59.892Z,24.7
2023-12-31T04:48:01.716Z,23.9
2023-12-31T04:48:59.938Z,24.2
2023-12-31T04:50:00.014Z,24.2
2023-12-31T04:50:59.920Z,23.5
2023-12-31T04:51:59.925Z,25.9
2023-12-31T04:53:00.733Z,28.5
2023-12-31T04:54:00.696Z,67.5
2023-12-31T04:54:59.947Z,66.5
2023-12-31T04:56:00.695Z,40.8
2023-12-31T04:57:00.713Z,63.4
2023-12-31T04:58:00.573Z,62.2
2023-12-31T04:59:00.725Z,53.2
2023-12-31T05:00:00.625Z,48.5
2023-12-31T05:01:00.688Z,45.7
2023-12-31T05:02:00.749Z,47.5
2023-12-31T05:03:00.813Z,45.8
2023-12-31T05:04:00.739Z,45.8
2023-12-31T05:05:01.017Z,42.8
2023-12-31T05:06:00.630Z,44.4
2023-12-31T05:06:59.900Z,42.7
2023-12-31T05:08:00.641Z,41.4
2023-12-31T05:09:01.087Z,43.4
2023-12-31T05:09:59.888Z,41.6
2023-12-31T05:10:59.911Z,38.7
2023-12-31T05:11:59.895Z,37.3
2023-12-31T05:12:59.896Z,37.6
2023-12-31T05:13:59.879Z,36.4
2023-12-31T05:14:59.869Z,37.9
2023-12-31T05:15:59.885Z,35.6
2023-12-31T05:16:59.924Z,31.3
2023-12-31T05:17:59.932Z,31.1
2023-12-31T05:18:59.984Z,30.1
2023-12-31T05:19:59.874Z,29.3
2023-12-31T05:21:00.056Z,29.8
2023-12-31T05:21:59.888Z,29.6
2023-12-31T05:22:59.927Z,27.8
2023-12-31T05:23:59.854Z,28.1
2023-12-31T05:24:59.886Z,29.0
2023-12-31T05:25:59.840Z,29.3
2023-12-31T05:26:59.973Z,29.0
2023-12-31T05:27:59.880Z,30.7
2023-12-31T05:28:59.880Z,29.5
2023-12-31T05:30:01.062Z,29.2
2023-12-31T05:30:59.938Z,28.7
2023-12-31T05:32:00.343Z,30.9
2023-12-31T05:33:00.171Z,29.6
2023-12-31T05:34:00.092Z,29.4
2023-12-31T05:34:59.888Z,32.2
2023-12-31T05:35:59.954Z,30.7
2023-12-31T05:36:59.953Z,29.8
2023-12-31T05:37:59.954Z,29.3
2023-12-31T05:38:59.955Z,31.4
2023-12-31T05:39:59.944Z,40.5
2023-12-31T05:41:00.749Z,40.2
2023-12-31T05:42:00.780Z,51.4
2023-12-31T05:43:00.896Z,49.8
2023-12-31T05:44:00.745Z,46.6
2023-12-31T05:45:00.748Z,44.9
2023-12-31T05:46:00.665Z,45.8
2023-12-31T05:46:59.853Z,45.3
2023-12-31T05:47:59.978Z,42.6
2023-12-31T05:48:59.972Z,42.0
2023-12-31T05:50:00.072Z,37.6
2023-12-31T05:51:01.092Z,40.1
2023-12-31T05:51:59.837Z,34.4
2023-12-31T05:52:59.801Z,32.3
2023-12-31T05:53:59.836Z,28.3
2023-12-31T05:54:59.813Z,30.7
2023-12-31T05:55:59.866Z,32.9
2023-12-31T05:56:59.884Z,34.7
2023-12-31T05:57:59.797Z,36.9
2023-12-31T05:58:59.947Z,35.8
2023-12-31T05:59:59.807Z,35.4
2023-12-31T06:00:59.897Z,34.3
2023-12-31T06:01:59.873Z,34.5
2023-12-31T06:02:59.873Z,33.5
2023-12-31T06:03:59.768Z,34.3
2023-12-31T06:04:59.874Z,32.9
2023-12-31T06:05:59.905Z,33.1
2023-12-31T06:06:59.900Z,32.4
2023-12-31T06:07:59.860Z,31.3
2023-12-31T06:08:59.866Z,31.0
2023-12-31T06:09:59.947Z,31.1
2023-12-31T06:10:59.835Z,31.3
2023-12-31T06:12:01.290Z,31.8
2023-12-31T06:12:59.854Z,31.9
2023-12-31T06:13:59.794Z,31.3
2023-12-31T06:14:59.829Z,32.6
2023-12-31T06:15:59.823Z,32.2
2023-12-31T06:16:59.842Z,31.4
2023-12-31T06:17:59.922Z,33.1
2023-12-31T06:18:59.837Z,33.7
2023-12-31T06:19:59.787Z,32.7
2023-12-31T06:20:59.919Z,31.6
2023-12-31T06:21:59.805Z,32.5
2023-12-31T06:22:59.802Z,32.1
2023-12-31T06:23:59.857Z,32.1
2023-12-31T06:25:01.584Z,32.0
2023-12-31T06:25:59.801Z,31.7
2023-12-31T06:26:59.762Z,30.8
2023-12-31T06:27:59.789Z,32.6
2023-12-31T06:28:59.785Z,33.5
2023-12-31T06:29:59.905Z,32.7
2023-12-31T06:30:59.856Z,33.6
2023-12-31T06:31:59.937Z,34.2
2023-12-31T06:33:01.504Z,33.8
2023-12-31T06:33:59.792Z,34.1
2023-12-31T06:34:59.762Z,33.7
2023-12-31T06:35:59.747Z,33.0
2023-12-31T06:36:59.750Z,34.9
2023-12-31T06:37:59.763Z,33.3
2023-12-31T06:38:59.762Z,35.5
2023-12-31T06:39:59.748Z,37.5
2023-12-31T06:40:59.808Z,35.8
2023-12-31T06:41:59.789Z,38.9
2023-12-31T06:42:59.744Z,48.1
2023-12-31T06:44:00.570Z,46.0
2023-12-31T06:45:00.526Z,60.0
2023-12-31T06:45:59.740Z,51.7
2023-12-31T06:46:59.772Z,46.9
2023-12-31T06:47:59.944Z,46.6
2023-12-31T06:48:59.815Z,46.0
2023-12-31T06:50:00.430Z,44.9
2023-12-31T06:50:59.712Z,50.5
2023-12-31T06:51:59.704Z,45.2
2023-12-31T06:52:59.774Z,46.0
2023-12-31T06:54:01.031Z,43.1
2023-12-31T06:54:59.713Z,40.2
2023-12-31T06:55:59.743Z,43.0
2023-12-31T06:56:59.731Z,45.1
2023-12-31T06:57:59.761Z,39.2
2023-12-31T06:58:59.812Z,40.2
2023-12-31T06:59:59.755Z,38.2
2023-12-31T07:00:59.741Z,36.6
2023-12-31T07:01:59.693Z,37.8
2023-12-31T07:02:59.917Z,36.4
2023-12-31T07:03:59.702Z,39.2
2023-12-31T07:05:00.831Z,39.3
2023-12-31T07:05:59.786Z,64.4
2023-12-31T07:06:59.756Z,39.4
2023-12-31T07:07:59.840Z,45.2
2023-12-31T07:09:00.563Z,47.6
2023-12-31T07:09:59.690Z,51.2
2023-12-31T07:10:59.715Z,48.2
2023-12-31T07:11:59.711Z,42.7
2023-12-31T07:12:59.761Z,46.4
2023-12-31T07:13:59.792Z,47.5
2023-12-31T07:15:01.159Z,44.7
2023-12-31T07:15:59.711Z,45.0
2023-12-31T07:16:59.739Z,46.7
2023-12-31T07:17:59.809Z,46.6
2023-12-31T07:18:59.781Z,45.1
2023-12-31T07:19:59.708Z,45.5
2023-12-31T07:20:59.830Z,45.6
2023-12-31T07:21:59.669Z,46.1
2023-12-31T07:23:00.546Z,52.2
2023-12-31T07:23:59.699Z,58.3
2023-12-31T07:24:59.684Z,49.0
2023-12-31T07:26:00.481Z,45.9
2023-12-31T07:26:59.688Z,50.5
2023-12-31T07:27:59.694Z,43.4
2023-12-31T07:29:09.598Z,36.9
2023-12-31T07:29:59.702Z,37.3
2023-12-31T07:30:59.705Z,35.0
2023-12-31T07:31:59.716Z,34.1
2023-12-31T07:32:59.783Z,38.6
2023-12-31T07:33:59.713Z,35.7
2023-12-31T07:34:59.672Z,32.0
2023-12-31T07:36:01.282Z,32.4
2023-12-31T07:36:59.671Z,32.1
2023-12-31T07:37:59.828Z,33.0
2023-12-31T07:38:59.680Z,34.0
2023-12-31T07:40:02.269Z,33.4
2023-12-31T07:40:59.684Z,32.5
2023-12-31T07:41:59.652Z,31.7
2023-12-31T07:42:59.623Z,31.8
2023-12-31T07:43:59.701Z,32.7
2023-12-31T07:44:59.631Z,36.7
2023-12-31T07:45:59.662Z,40.8
2023-12-31T07:46:59.715Z,42.5
2023-12-31T07:47:59.748Z,42.3
2023-12-31T07:48:59.822Z,37.7
2023-12-31T07:49:59.645Z,35.8
2023-12-31T07:50:59.619Z,36.7
2023-12-31T07:51:59.651Z,37.0
2023-12-31T07:52:59.686Z,38.7
2023-12-31T07:53:59.624Z,36.7
2023-12-31T07:54:59.678Z,35.9
2023-12-31T07:55:59.678Z,36.6
2023-12-31T07:57:01.440Z,37.0
2023-12-31T07:57:59.702Z,36.9
2023-12-31T07:58:59.679Z,36.0
2023-12-31T07:59:59.890Z,41.8
2023-12-31T08:00:59.802Z,40.8
2023-12-31T08:01:59.716Z,43.2
2023-12-31T08:02:59.620Z,42.0
2023-12-31T08:03:59.689Z,40.9
2023-12-31T08:04:59.639Z,44.5
2023-12-31T08:05:59.722Z,42.5
2023-12-31T08:06:59.675Z,41.7
2023-12-31T08:07:59.647Z,42.5
2023-12-31T08:08:59.596Z,50.7
2023-12-31T08:09:59.561Z,44.3
2023-12-31T08:11:01.310Z,45.0
2023-12-31T08:11:59.592Z,46.0
2023-12-31T08:12:59.600Z,45.0
2023-12-31T08:13:59.757Z,45.9
2023-12-31T08:15:00.363Z,45.7
2023-12-31T08:15:59.668Z,53.3
2023-12-31T08:17:00.469Z,48.9
2023-12-31T08:18:01.576Z,52.7
2023-12-31T08:18:59.703Z,47.5
2023-12-31T08:19:59.588Z,45.5
2023-12-31T08:20:59.565Z,40.3
2023-12-31T08:22:00.343Z,40.4
2023-12-31T08:23:00.542Z,61.3
2023-12-31T08:24:00.528Z,58.7
2023-12-31T08:25:00.462Z,63.6
2023-12-31T08:26:00.456Z,70.2
2023-12-31T08:27:00.624Z,67.6
2023-12-31T08:28:00.693Z,73.1
2023-12-31T08:29:00.391Z,58.1
2023-12-31T08:30:00.536Z,54.2
2023-12-31T08:30:59.621Z,55.0
2023-12-31T08:32:00.372Z,55.3
2023-12-31T08:33:00.377Z,61.0
2023-12-31T08:34:00.466Z,61.4
2023-12-31T08:34:59.594Z,53.6
2023-12-31T08:35:59.565Z,54.8
2023-12-31T08:36:59.579Z,53.1
2023-12-31T08:37:59.627Z,52.5
2023-12-31T08:39:01.360Z,52.3
2023-12-31T08:39:59.544Z,53.7
2023-12-31T08:40:59.585Z,51.7
2023-12-31T08:41:59.604Z,52.2
2023-12-31T08:42:59.561Z,51.4
2023-12-31T08:43:59.537Z,51.5
2023-12-31T08:45:06.160Z,49.8
2023-12-31T08:45:59.542Z,51.3
2023-12-31T08:46:59.731Z,50.4
2023-12-31T08:47:59.656Z,50.4
2023-12-31T08:48:59.597Z,53.1
2023-12-31T08:49:59.623Z,52.9
2023-12-31T08:50:59.648Z,54.8
2023-12-31T08:51:59.502Z,55.7
2023-12-31T08:52:59.581Z,55.2
2023-12-31T08:53:59.513Z,58.5
2023-12-31T08:54:59.549Z,56.7
2023-12-31T08:55:59.604Z,54.7
2023-12-31T08:56:59.505Z,52.3
2023-12-31T08:57:59.524Z,51.7
2023-12-31T08:58:59.863Z,51.3
2023-12-31T09:00:01.183Z,49.4
2023-12-31T09:00:59.576Z,48.5
2023-12-31T09:01:59.549Z,48.6
2023-12-31T09:02:59.535Z,57.0
2023-12-31T09:03:59.560Z,51.2
2023-12-31T09:04:59.612Z,51.0
2023-12-31T09:05:59.509Z,55.8
2023-12-31T09:06:59.545Z,49.9
2023-12-31T09:07:59.752Z,52.4
2023-12-31T09:08:59.520Z,52.1
2023-12-31T09:10:00.264Z,50.3
2023-12-31T09:11:00.409Z,68.2
2023-12-31T09:12:00.243Z,165.8
2023-12-31T09:13:00.245Z,163.9
2023-12-31T09:14:00.397Z,131.2
2023-12-31T09:15:00.312Z,130.7
2023-12-31T09:16:00.278Z,132.8
2023-12-31T09:17:00.420Z,123.2
2023-12-31T09:18:00.229Z,122.3
2023-12-31T09:19:00.235Z,119.4
2023-12-31T09:20:00.478Z,126.0
2023-12-31T09:21:01.990Z,129.2
2023-12-31T09:22:00.292Z,115.3
2023-12-31T09:23:00.333Z,113.5
2023-12-31T09:24:00.227Z,116.2
2023-12-31T09:25:00.358Z,120.2
2023-12-31T09:26:00.289Z,98.0
2023-12-31T09:27:00.183Z,88.6
2023-12-31T09:28:00.329Z,91.5
2023-12-31T09:29:00.443Z,100.9
2023-12-31T09:30:00.618Z,95.4
2023-12-31T09:31:00.290Z,80.4
2023-12-31T09:31:59.488Z,63.7
2023-12-31T09:32:59.538Z,56.2
2023-12-31T09:33:59.575Z,54.9
2023-12-31T09:34:59.628Z,56.0
2023-12-31T09:35:59.470Z,57.2
2023-12-31T09:36:59.435Z,57.7
2023-12-31T09:37:59.509Z,57.1
2023-12-31T09:38:59.449Z,57.7
2023-12-31T09:39:59.444Z,60.6
2023-12-31T09:40:59.643Z,56.8
2023-12-31T09:42:01.307Z,55.4
2023-12-31T09:42:59.583Z,54.1
2023-12-31T09:43:59.528Z,56.0
2023-12-31T09:44:59.437Z,54.1
2023-12-31T09:45:59.472Z,55.7
2023-12-31T09:47:08.686Z,56.5
2023-12-31T09:47:59.508Z,54.2
2023-12-31T09:48:59.476Z,55.5
2023-12-31T09:49:59.496Z,55.4
2023-12-31T09:50:59.475Z,55.7
2023-12-31T09:51:59.477Z,55.4
2023-12-31T09:52:59.617Z,54.5
2023-12-31T09:53:59.551Z,56.5
2023-12-31T09:54:59.434Z,53.4
2023-12-31T09:55:59.547Z,50.5
2023-12-31T09:56:59.441Z,51.4
2023-12-31T09:57:59.429Z,50.1
2023-12-31T09:59:03.442Z,47.5
2023-12-31T09:59:59.413Z,46.1
2023-12-31T10:00:59.486Z,46.4
2023-12-31T10:01:59.489Z,46.1
2023-12-31T10:03:01.518Z,50.5
2023-12-31T10:03:59.428Z,52.4
2023-12-31T10:05:00.431Z,49.5
2023-12-31T10:06:00.374Z,101.0
2023-12-31T10:07:00.270Z,115.9
2023-12-31T10:08:00.239Z,107.8
2023-12-31T10:09:00.363Z,91.0
2023-12-31T10:10:00.277Z,72.1
2023-12-31T10:11:00.358Z,62.5
2023-12-31T10:11:59.445Z,65.6
2023-12-31T10:12:59.406Z,52.0
2023-12-31T10:13:59.450Z,56.9
2023-12-31T10:15:00.272Z,51.4
2023-12-31T10:16:00.211Z,103.9
2023-12-31T10:17:00.216Z,165.4
2023-12-31T10:18:00.741Z,164.8
2023-12-31T10:19:00.219Z,193.3
2023-12-31T10:20:00.477Z,118.9
2023-12-31T10:21:00.379Z,106.5
2023-12-31T10:22:00.328Z,105.3
2023-12-31T10:22:59.414Z,68.1
2023-12-31T10:24:01.824Z,58.8
2023-12-31T10:24:59.405Z,56.3
2023-12-31T10:25:59.504Z,51.4
2023-12-31T10:26:59.411Z,51.3
2023-12-31T10:27:59.464Z,55.6
2023-12-31T10:29:00.151Z,58.3
2023-12-31T10:30:00.072Z,65.1
2023-12-31T10:31:00.215Z,63.8
2023-12-31T10:32:00.399Z,65.1
2023-12-31T10:33:00.110Z,65.2
2023-12-31T10:34:00.385Z,75.9
2023-12-31T10:35:00.175Z,73.3
2023-12-31T10:36:00.401Z,75.6
2023-12-31T10:37:00.005Z,81.4
2023-12-31T10:38:00.198Z,112.9
2023-12-31T10:39:00.154Z,122.7
2023-12-31T10:40:00.046Z,118.1
2023-12-31T10:41:00.157Z,109.4
2023-12-31T10:42:00.338Z,108.0
2023-12-31T10:43:00.087Z,100.2
2023-12-31T10:44:00.193Z,101.1
2023-12-31T10:45:02.315Z,100.3
2023-12-31T10:46:00.150Z,99.7
2023-12-31T10:47:00.285Z,98.0
2023-12-31T10:48:00.224Z,93.4
2023-12-31T10:49:00.070Z,91.1
2023-12-31T10:50:00.120Z,92.8
2023-12-31T10:51:00.042Z,87.1
2023-12-31T10:52:00.101Z,85.3
2023-12-31T10:53:00.192Z,98.4
2023-12-31T10:54:00.083Z,101.6
2023-12-31T10:55:00.085Z,102.6
2023-12-31T10:56:00.151Z,101.8
2023-12-31T10:57:00.158Z,110.0
2023-12-31T10:58:00.220Z,119.7
2023-12-31T10:59:00.207Z,127.4
2023-12-31T11:00:00.263Z,114.0
2023-12-31T11:01:00.093Z,105.7
2023-12-31T11:02:00.205Z,85.3
2023-12-31T11:03:00.120Z,85.0
2023-12-31T11:04:00.620Z,96.2
2023-12-31T11:05:00.337Z,103.2
2023-12-31T11:06:02.189Z,93.6
2023-12-31T11:07:00.019Z,92.8
2023-12-31T11:08:00.013Z,90.5
2023-12-31T11:09:00.025Z,85.0
2023-12-31T11:10:00.056Z,85.1
2023-12-31T11:11:00.104Z,81.5
2023-12-31T11:12:00.062Z,78.6
2023-12-31T11:13:00.317Z,79.5
2023-12-31T11:14:00.398Z,82.7
2023-12-31T11:15:00.105Z,94.5
2023-12-31T11:16:00.153Z,105.4
2023-12-31T11:17:00.230Z,104.3
2023-12-31T11:18:00.126Z,98.6
2023-12-31T11:19:00.161Z,100.7
2023-12-31T11:20:00.102Z,95.6
2023-12-31T11:21:00.037Z,91.7
2023-12-31T11:22:00.090Z,80.6
2023-12-31T11:23:00.141Z,69.8
2023-12-31T11:24:00.209Z,60.4
2023-12-31T11:25:00.200Z,57.1
2023-12-31T11:26:00.436Z,63.3
2023-12-31T11:27:01.221Z,61.1
2023-12-31T11:27:59.206Z,53.5
2023-12-31T11:28:59.332Z,54.6
2023-12-31T11:29:59.330Z,54.0
2023-12-31T11:31:00.553Z,56.4
2023-12-31T11:31:59.320Z,56.8
2023-12-31T11:33:00.147Z,58.6
2023-12-31T11:34:00.220Z,58.4
2023-12-31T11:35:00.055Z,60.8
2023-12-31T11:36:00.209Z,59.3
2023-12-31T11:36:59.309Z,57.3
2023-12-31T11:38:00.063Z,54.9
2023-12-31T11:39:00.096Z,72.5
2023-12-31T11:40:00.092Z,80.9
2023-12-31T11:41:00.117Z,75.5
2023-12-31T11:41:59.975Z,107.8
2023-12-31T11:43:00.002Z,97.9
2023-12-31T11:44:00.180Z,91.4
2023-12-31T11:45:00.007Z,80.4
2023-12-31T11:45:59.963Z,97.8
2023-12-31T11:47:00.138Z,88.1
2023-12-31T11:48:02.027Z,130.2
2023-12-31T11:49:00.142Z,126.9
2023-12-31T11:50:00.023Z,108.1
2023-12-31T11:51:00.186Z,107.5
2023-12-31T11:52:00.074Z,90.4
2023-12-31T11:53:00.169Z,93.6
2023-12-31T11:54:03.336Z,85.0
2023-12-31T11:55:00.039Z,66.8
2023-12-31T11:56:00.302Z,70.2
2023-12-31T11:56:59.914Z,67.3
2023-12-31T11:57:59.245Z,60.2
2023-12-31T11:58:59.359Z,44.8
2023-12-31T11:59:59.237Z,42.6
2023-12-31T12:00:59.301Z,37.2
2023-12-31T12:01:59.351Z,37.4
2023-12-31T12:02:59.287Z,40.6
2023-12-31T12:03:59.358Z,39.8
2023-12-31T12:04:59.357Z,42.8
2023-12-31T12:06:00.111Z,37.9
2023-12-31T12:06:59.252Z,58.4
2023-12-31T12:07:59.348Z,52.2
2023-12-31T12:09:01.711Z,38.2
2023-12-31T12:09:59.206Z,42.6
2023-12-31T12:10:59.283Z,21.7
2023-12-31T12:11:59.259Z,19.8
2023-12-31T12:13:00.896Z,19.2
2023-12-31T12:13:59.330Z,20.9
2023-12-31T12:14:59.198Z,20.7
2023-12-31T12:15:59.213Z,16.3
2023-12-31T12:16:59.340Z,15.3
2023-12-31T12:17:59.357Z,14.7
2023-12-31T12:18:59.352Z,14.1
2023-12-31T12:19:59.364Z,14.6
2023-12-31T12:20:59.293Z,15.2
2023-12-31T12:21:59.229Z,15.4
2023-12-31T12:22:59.380Z,12.6
2023-12-31T12:23:59.230Z,13.2
2023-12-31T12:24:59.229Z,24.1
2023-12-31T12:25:59.300Z,19.9
2023-12-31T12:26:59.291Z,16.5
2023-12-31T12:27:59.189Z,15.0
2023-12-31T12:28:59.553Z,15.4
2023-12-31T12:30:01.617Z,16.5
2023-12-31T12:30:59.264Z,17.4
2023-12-31T12:31:59.351Z,18.9
2023-12-31T12:32:59.285Z,17.7
2023-12-31T12:33:59.192Z,20.6
2023-12-31T12:34:59.337Z,20.2
2023-12-31T12:35:59.250Z,17.2
2023-12-31T12:36:59.185Z,19.0
2023-12-31T12:37:59.219Z,21.4
2023-12-31T12:38:59.183Z,15.7
2023-12-31T12:39:59.167Z,13.6
2023-12-31T12:40:59.218Z,14.3
2023-12-31T12:41:59.199Z,13.8
2023-12-31T12:42:59.178Z,14.7
2023-12-31T12:43:59.273Z,20.5
2023-12-31T12:44:59.377Z,19.3
2023-12-31T12:45:59.164Z,21.5
2023-12-31T12:46:59.285Z,19.8
2023-12-31T12:47:59.287Z,17.1
2023-12-31T12:48:59.168Z,15.1
2023-12-31T12:49:59.189Z,14.8
2023-12-31T12:51:01.862Z,13.6
2023-12-31T12:51:59.181Z,12.3
2023-12-31T12:52:59.229Z,15.6
2023-12-31T12:53:59.156Z,15.0
2023-12-31T12:54:59.166Z,13.3
2023-12-31T12:55:59.272Z,11.4
2023-12-31T12:56:59.159Z,11.3
2023-12-31T12:57:59.215Z,12.0
2023-12-31T12:58:59.169Z,10.7
2023-12-31T12:59:59.165Z,16.4
2023-12-31T13:00:59.212Z,22.6
2023-12-31T13:01:59.347Z,14.9
2023-12-31T13:02:59.207Z,15.8
2023-12-31T13:03:59.178Z,18.7
2023-12-31T13:04:59.362Z,20.0
2023-12-31T13:05:59.287Z,12.7
2023-12-31T13:06:59.171Z,12.0
2023-12-31T13:07:59.215Z,11.8
2023-12-31T13:08:59.180Z,15.1
2023-12-31T13:09:59.145Z,13.8
2023-12-31T13:10:59.171Z,16.1
2023-12-31T13:12:01.860Z,18.1
2023-12-31T13:12:59.301Z,14.4
2023-12-31T13:13:59.151Z,18.5
2023-12-31T13:14:59.083Z,15.5
2023-12-31T13:16:00.179Z,18.0